MCBH Kaneohe Bay, Hawaii
Current Conditions -  °F | °C
As of 2:21 PM on Monday 20 Oct 2014 (Local Time) from PHNG Reporting Station
Broken Clouds Broken Clouds  
Wind Chill: 84°   Ceiling: 2600
Heat Index: 90°   Visibility: 10mi
Dew Point: 72°   Wind: 13mph
Humidity: 67%   Direction: 70°ENE
Pressure: 29.96"   Gusts: 18mph
Location:  21.45°N, 157.75°W
Report Text: PHNG 210021Z 07011G16KT 10SM BKN026 BKN034 29/22 A2996 RMK AO2 T02890222 $
Loading
Personal Weather Stations






























Interactive Weather Map
Tropical Storm Tracking
New forecast layout! Learn more

10-Day Weather Forecast

Advertisements
Track Severe Weather on mobile